Time;durP1;ratioP1;P1;durP2;ratioP2;P2;SDS_P1;SDS_P2;PMS_P1;PMS_P2;Temp;Humidity;BMP_temperature;BMP_pressure;BME280_temperature;BME280_humidity;BME280_pressure;Samples;Min_cycle;Max_cycle;Signal;HPM_P1;HPM_P2
2023/03/26 00:01:12;;;;;;;21.02;18.05;;;9.00;99.90;;;;;;5001057;28;20093;-81
2023/03/26 00:03:39;;;;;;;25.80;19.25;;;9.00;99.90;;;;;;4995525;28;20026;-81
2023/03/26 00:06:12;;;;;;;22.98;18.95;;;9.00;99.90;;;;;;4994952;28;20508;-81
2023/03/26 00:08:40;;;;;;;20.88;17.65;;;9.00;99.90;;;;;;4990965;28;20129;-80
2023/03/26 00:11:09;;;;;;;24.52;17.55;;;9.00;99.90;;;;;;4995517;28;20019;-80
2023/03/26 00:13:35;;;;;;;24.20;18.33;;;9.00;99.90;;;;;;4994190;28;20045;-81
2023/03/26 00:16:01;;;;;;;21.63;18.73;;;8.90;99.90;;;;;;4997819;28;20050;-83
2023/03/26 00:18:33;;;;;;;24.33;18.13;;;8.90;99.90;;;;;;4994646;28;20426;-81
2023/03/26 00:21:02;;;;;;;23.98;18.73;;;8.90;99.90;;;;;;4994081;28;20383;-82
2023/03/26 00:23:29;;;;;;;24.08;18.70;;;8.90;99.90;;;;;;4994458;28;20026;-82
2023/03/26 00:25:56;;;;;;;26.17;20.40;;;8.90;99.90;;;;;;4983645;28;20081;-81
2023/03/26 00:28:23;;;;;;;25.98;18.52;;;8.90;99.90;;;;;;4992989;28;20089;-82
2023/03/26 00:30:56;;;;;;;26.10;19.92;;;8.90;99.90;;;;;;4994420;28;20499;-81
2023/03/26 00:33:22;;;;;;;27.73;19.83;;;8.90;99.90;;;;;;4993409;28;20400;-81
2023/03/26 00:35:57;;;;;;;25.73;20.90;;;8.90;99.90;;;;;;5006299;28;20028;-80
2023/03/26 00:38:24;;;;;;;23.50;19.50;;;8.90;99.90;;;;;;5000427;28;20412;-81
2023/03/26 00:40:51;;;;;;;24.23;19.67;;;8.90;99.90;;;;;;4995672;28;20022;-82
2023/03/26 00:43:21;;;;;;;25.67;19.48;;;8.90;99.90;;;;;;4994342;28;20049;-83
2023/03/26 00:45:49;;;;;;;26.95;21.33;;;8.80;99.90;;;;;;4995188;28;20027;-80
2023/03/26 00:48:16;;;;;;;26.30;20.88;;;8.80;99.90;;;;;;4993771;28;20014;-83
2023/03/26 00:50:45;;;;;;;25.58;20.20;;;8.80;99.90;;;;;;4994749;28;20019;-80
2023/03/26 00:53:12;;;;;;;24.30;21.00;;;8.80;99.90;;;;;;5005463;28;20049;-80
2023/03/26 00:55:40;;;;;;;28.92;22.15;;;8.80;99.90;;;;;;4994446;28;20018;-83
2023/03/26 00:58:09;;;;;;;28.80;22.10;;;8.80;99.90;;;;;;4994883;28;20090;-80
2023/03/26 01:00:56;;;;;;;25.20;21.38;;;8.80;99.90;;;;;;4995553;28;20025;-81
2023/03/26 01:03:28;;;;;;;25.45;20.67;;;8.80;99.90;;;;;;4994775;28;20069;-82
2023/03/26 01:06:03;;;;;;;24.77;21.55;;;8.80;99.90;;;;;;4994312;28;20033;-80
2023/03/26 01:08:48;;;;;;;25.10;20.27;;;8.90;99.90;;;;;;4997949;28;20409;-82
2023/03/26 01:11:21;;;;;;;27.80;21.73;;;8.90;99.90;;;;;;4990196;28;20023;-81
2023/03/26 01:13:50;;;;;;;31.02;21.95;;;8.80;99.90;;;;;;5001995;28;20030;-79
2023/03/26 01:16:26;;;;;;;27.75;20.70;;;8.90;99.90;;;;;;4993864;28;20046;-80
2023/03/26 01:18:53;;;;;;;26.48;20.55;;;8.80;99.90;;;;;;5000217;28;20022;-80
2023/03/26 01:21:22;;;;;;;24.75;20.60;;;8.80;99.90;;;;;;4992108;28;20026;-80
2023/03/26 01:24:01;;;;;;;26.42;19.77;;;8.80;99.90;;;;;;4992518;28;20041;-82
2023/03/26 01:26:51;;;;;;;25.33;20.52;;;8.90;99.90;;;;;;5003050;28;20054;-81
2023/03/26 01:29:26;;;;;;;26.50;21.48;;;8.90;99.90;;;;;;5013517;28;20044;-83
2023/03/26 01:32:22;;;;;;;26.00;19.92;;;8.90;99.90;;;;;;4992656;28;20050;-80
2023/03/26 01:35:03;;;;;;;25.67;19.80;;;8.90;99.90;;;;;;4991890;28;20117;-81
2023/03/26 01:37:51;;;;;;;24.08;19.83;;;8.90;99.90;;;;;;4992642;28;20030;-82
2023/03/26 01:40:17;;;;;;;22.63;20.17;;;8.90;99.90;;;;;;5002173;28;20014;-80
2023/03/26 01:43:09;;;;;;;22.08;19.67;;;8.90;99.90;;;;;;5008318;28;20057;-80
2023/03/26 01:45:38;;;;;;;25.15;21.13;;;9.00;99.90;;;;;;4975161;28;20026;-81
2023/03/26 01:48:05;;;;;;;26.77;21.08;;;8.90;99.90;;;;;;4990811;28;20018;-81
2023/03/26 01:50:31;;;;;;;29.48;20.83;;;9.00;99.90;;;;;;4994888;28;20022;-81
2023/03/26 01:52:57;;;;;;;25.55;20.25;;;8.90;99.90;;;;;;4993627;28;20038;-83
2023/03/26 01:55:43;;;;;;;24.55;20.75;;;8.90;99.90;;;;;;4991478;28;20491;-81
2023/03/26 01:58:26;;;;;;;27.50;22.33;;;8.90;99.90;;;;;;4994352;28;20026;-80
2023/03/26 02:01:01;;;;;;;30.52;25.05;;;8.90;99.90;;;;;;4984908;28;20019;-82
2023/03/26 02:03:33;;;;;;;34.92;28.85;;;8.90;99.90;;;;;;4991000;28;20022;-81
2023/03/26 02:06:24;;;;;;;31.88;28.35;;;8.90;99.90;;;;;;4992614;28;20030;-81
2023/03/26 02:09:01;;;;;;;30.52;26.17;;;8.90;99.90;;;;;;4991806;28;20105;-81
2023/03/26 02:11:27;;;;;;;33.83;25.90;;;8.90;99.90;;;;;;4996091;28;20045;-82
2023/03/26 02:13:53;;;;;;;32.50;26.48;;;8.90;99.90;;;;;;4989637;28;20038;-82
2023/03/26 02:16:20;;;;;;;37.38;27.63;;;8.90;99.90;;;;;;5000720;28;20054;-82
2023/03/26 02:18:50;;;;;;;38.30;28.08;;;8.90;99.90;;;;;;5003883;28;20027;-82
2023/03/26 02:21:22;;;;;;;32.42;27.58;;;9.00;99.90;;;;;;5014876;28;20018;-82
2023/03/26 02:24:01;;;;;;;35.05;27.27;;;8.90;99.90;;;;;;5010642;28;20029;-82
2023/03/26 02:26:29;;;;;;;37.78;30.58;;;8.90;99.90;;;;;;5011506;28;20010;-82
2023/03/26 02:28:56;;;;;;;36.33;29.65;;;8.80;99.90;;;;;;5000383;28;20038;-82
2023/03/26 02:31:25;;;;;;;35.70;28.77;;;8.80;99.90;;;;;;4997409;28;20015;-83
2023/03/26 02:33:52;;;;;;;39.97;30.70;;;8.80;99.90;;;;;;4996775;28;20026;-82
2023/03/26 02:36:20;;;;;;;36.47;28.65;;;8.80;99.90;;;;;;4996595;28;20080;-81
2023/03/26 02:38:47;;;;;;;33.85;24.73;;;8.70;99.90;;;;;;5005138;28;20027;-81
2023/03/26 02:41:12;;;;;;;30.67;25.60;;;8.70;99.90;;;;;;4998215;28;20045;-81
2023/03/26 02:43:38;;;;;;;36.42;27.42;;;8.70;99.90;;;;;;5011210;28;20026;-82
2023/03/26 02:46:04;;;;;;;30.58;26.77;;;8.70;99.90;;;;;;5000863;28;20029;-83
2023/03/26 02:48:30;;;;;;;33.05;25.13;;;8.70;99.90;;;;;;5000031;28;20014;-82
2023/03/26 02:50:56;;;;;;;37.05;26.77;;;8.70;99.90;;;;;;5001099;28;20030;-82
2023/03/26 02:53:28;;;;;;;34.00;24.70;;;8.70;99.90;;;;;;5001258;28;20034;-82
2023/03/26 02:55:55;;;;;;;35.40;24.38;;;8.70;99.90;;;;;;4998016;28;20054;-83
2023/03/26 02:58:24;;;;;;;31.10;23.75;;;8.60;99.90;;;;;;4996056;28;20023;-80
2023/03/26 03:00:53;;;;;;;33.65;24.65;;;8.60;99.90;;;;;;4996066;28;20109;-80
2023/03/26 03:03:24;;;;;;;29.63;22.17;;;8.60;99.90;;;;;;4995080;28;20498;-80
2023/03/26 03:05:51;;;;;;;30.23;24.25;;;8.60;99.90;;;;;;4995129;28;20029;-82
2023/03/26 03:08:22;;;;;;;31.08;24.67;;;8.60;99.90;;;;;;4995385;28;20032;-81
2023/03/26 03:11:02;;;;;;;29.70;24.45;;;8.60;99.90;;;;;;4987309;28;20023;-81
2023/03/26 03:13:28;;;;;;;31.45;23.27;;;8.60;99.90;;;;;;4993406;28;20049;-80
2023/03/26 03:15:55;;;;;;;25.48;21.30;;;8.60;99.90;;;;;;4993596;28;20491;-82
2023/03/26 03:18:21;;;;;;;31.20;21.90;;;8.60;99.90;;;;;;4995241;28;20101;-80
2023/03/26 03:20:46;;;;;;;24.80;18.75;;;8.60;99.90;;;;;;4998121;28;20022;-80
2023/03/26 03:23:12;;;;;;;24.08;19.77;;;8.60;99.90;;;;;;4998753;28;20505;-82
2023/03/26 03:25:40;;;;;;;24.85;19.35;;;8.60;99.90;;;;;;4995873;28;20062;-80
2023/03/26 03:28:07;;;;;;;23.58;19.58;;;8.60;99.90;;;;;;4995435;28;20019;-81
2023/03/26 03:30:33;;;;;;;24.85;19.27;;;8.60;99.90;;;;;;5006562;28;20022;-81
2023/03/26 03:33:01;;;;;;;21.70;18.58;;;8.60;99.90;;;;;;5000792;28;20065;-81
2023/03/26 03:35:26;;;;;;;;;;;8.60;99.90;;;;;;5003931;28;20023;-80
2023/03/26 03:37:53;;;;;;;23.48;19.38;;;8.60;99.90;;;;;;4994819;28;19928;-81
2023/03/26 03:40:19;;;;;;;25.27;18.65;;;8.50;99.90;;;;;;4993577;28;20095;-82
2023/03/26 03:42:45;;;;;;;24.83;19.83;;;8.50;99.90;;;;;;4997950;28;20014;-80
2023/03/26 03:45:12;;;;;;;26.13;21.17;;;8.60;99.90;;;;;;4997809;28;20472;-81
2023/03/26 03:47:37;;;;;;;29.45;20.85;;;8.60;99.90;;;;;;4995832;28;20030;-79
2023/03/26 03:50:05;;;;;;;27.17;20.35;;;8.60;99.90;;;;;;4996610;28;20116;-80
2023/03/26 03:52:31;;;;;;;26.42;20.80;;;8.60;99.90;;;;;;5001497;28;20037;-80
2023/03/26 03:54:59;;;;;;;22.88;18.77;;;8.60;99.90;;;;;;5019343;28;20009;-80
2023/03/26 03:57:25;;;;;;;;;;;8.60;99.90;;;;;;5008313;28;20026;-80
2023/03/26 03:59:51;;;;;;;25.08;20.15;;;8.60;99.90;;;;;;4996847;28;19905;-81
2023/03/26 04:02:24;;;;;;;25.75;21.15;;;8.50;99.90;;;;;;4993775;28;20019;-80
2023/03/26 04:04:51;;;;;;;28.88;21.50;;;8.50;99.90;;;;;;4994502;28;20427;-81
2023/03/26 04:07:17;;;;;;;29.08;22.65;;;8.60;99.90;;;;;;4993290;28;20472;-81
2023/03/26 04:09:43;;;;;;;28.00;21.90;;;8.60;99.90;;;;;;4994847;28;20045;-82
2023/03/26 04:12:09;;;;;;;30.60;22.35;;;8.60;99.90;;;;;;4997703;28;20038;-81
2023/03/26 04:14:35;;;;;;;30.35;22.13;;;8.60;99.90;;;;;;4996732;28;20045;-81
2023/03/26 04:17:04;;;;;;;32.38;23.52;;;8.70;99.90;;;;;;4989797;28;20031;-80
2023/03/26 04:19:30;;;;;;;28.05;22.70;;;8.70;99.90;;;;;;4993391;28;20468;-81
2023/03/26 04:22:01;;;;;;;29.17;23.15;;;8.70;99.90;;;;;;4989819;28;20109;-81
2023/03/26 04:24:29;;;;;;;31.40;25.23;;;8.70;99.90;;;;;;4986325;28;20027;-81
2023/03/26 04:26:59;;;;;;;29.10;25.77;;;8.70;99.90;;;;;;4995564;28;20030;-81
2023/03/26 04:29:26;;;;;;;32.63;25.83;;;8.80;99.90;;;;;;4994154;28;20030;-80
2023/03/26 04:32:05;;;;;;;39.23;27.73;;;8.90;99.90;;;;;;4992931;28;20030;-80
2023/03/26 04:34:32;;;;;;;35.72;27.20;;;8.90;99.90;;;;;;4996385;28;20260;-80
2023/03/26 04:37:01;;;;;;;33.22;26.98;;;8.90;99.90;;;;;;4996421;28;20045;-79
2023/03/26 04:39:28;;;;;;;34.45;26.65;;;9.00;99.90;;;;;;4996861;28;20074;-81
2023/03/26 04:41:54;;;;;;;34.63;26.30;;;9.10;99.90;;;;;;4995453;28;20022;-82
2023/03/26 04:44:23;;;;;;;35.20;28.10;;;9.10;99.90;;;;;;4996358;28;20454;-82
2023/03/26 04:46:51;;;;;;;38.35;28.52;;;9.20;99.90;;;;;;4997061;28;20031;-82
2023/03/26 04:49:18;;;;;;;42.53;28.88;;;9.20;99.90;;;;;;4996055;28;20046;-83
2023/03/26 04:51:45;;;;;;;39.92;29.80;;;9.20;99.90;;;;;;5000981;28;20050;-83
2023/03/26 04:54:13;;;;;;;38.50;29.00;;;9.30;99.90;;;;;;4995485;28;20090;-83
2023/03/26 04:56:55;;;;;;;40.60;30.88;;;9.30;99.90;;;;;;4997354;28;20368;-82
2023/03/26 04:59:30;;;;;;;40.08;31.70;;;9.30;99.90;;;;;;4996024;28;20082;-82
2023/03/26 05:01:58;;;;;;;41.85;32.10;;;9.30;99.90;;;;;;5000365;28;20022;-81
2023/03/26 05:04:25;;;;;;;41.40;31.75;;;9.30;99.90;;;;;;5007834;28;20447;-81
2023/03/26 05:06:56;;;;;;;43.40;31.70;;;9.40;99.90;;;;;;5000661;28;20023;-83
2023/03/26 05:09:23;;;;;;;49.83;34.47;;;9.40;99.90;;;;;;4998249;28;20018;-83
2023/03/26 05:11:50;;;;;;;44.60;31.55;;;9.50;99.90;;;;;;4997879;28;20062;-83
2023/03/26 05:14:17;;;;;;;43.70;32.00;;;9.50;99.90;;;;;;4995923;28;20022;-82
2023/03/26 05:16:45;;;;;;;50.05;32.33;;;9.60;99.90;;;;;;4989264;28;20284;-81
2023/03/26 05:19:11;;;;;;;45.53;32.90;;;9.60;99.90;;;;;;4990175;28;20072;-82
2023/03/26 05:21:37;;;;;;;49.38;34.67;;;9.60;99.90;;;;;;5012284;28;20045;-82
2023/03/26 05:24:05;;;;;;;46.78;32.00;;;9.70;99.90;;;;;;4999315;28;20567;-82
2023/03/26 05:26:32;;;;;;;45.85;33.25;;;9.70;99.90;;;;;;4998177;28;20022;-81
2023/03/26 05:28:59;;;;;;;56.20;35.55;;;9.60;99.90;;;;;;5000591;28;20032;-81
2023/03/26 05:31:30;;;;;;;47.33;34.70;;;9.60;99.90;;;;;;4997689;28;20026;-82
2023/03/26 05:33:56;;;;;;;55.40;36.15;;;9.70;99.90;;;;;;5005026;28;20026;-82
2023/03/26 05:36:23;;;;;;;58.03;36.83;;;9.70;99.90;;;;;;5006171;28;20515;-82
2023/03/26 05:38:51;;;;;;;53.10;36.20;;;9.70;99.90;;;;;;4996832;28;20065;-81
2023/03/26 05:41:17;;;;;;;;;;;9.60;99.90;;;;;;4993895;28;20014;-81
2023/03/26 05:43:43;;;;;;;55.00;36.45;;;9.60;99.90;;;;;;4977678;28;19927;-80
2023/03/26 05:46:10;;;;;;;53.93;35.97;;;9.60;99.90;;;;;;4998909;28;20030;-80
2023/03/26 05:48:37;;;;;;;54.17;35.83;;;9.60;99.90;;;;;;4996622;28;20749;-82
2023/03/26 05:51:04;;;;;;;54.85;38.20;;;9.60;99.90;;;;;;4995017;28;20022;-82
2023/03/26 05:53:31;;;;;;;66.13;36.75;;;9.60;99.90;;;;;;5001499;28;20030;-83
2023/03/26 05:55:56;;;;;;;50.28;35.08;;;9.50;99.90;;;;;;5009000;28;20026;-82
2023/03/26 05:58:27;;;;;;;55.72;36.30;;;9.30;99.90;;;;;;5017783;28;20117;-81
2023/03/26 06:00:58;;;;;;;60.28;37.45;;;9.20;99.90;;;;;;5001714;28;20713;-82
2023/03/26 06:03:25;;;;;;;60.65;39.20;;;9.10;99.90;;;;;;4998609;28;20085;-81
2023/03/26 06:05:51;;;;;;;60.13;35.28;;;9.00;99.90;;;;;;5007109;28;20369;-81
2023/03/26 06:08:18;;;;;;;61.38;33.92;;;8.90;99.90;;;;;;4998904;28;20033;-81
2023/03/26 06:10:44;;;;;;;68.18;38.58;;;8.80;99.90;;;;;;4998174;28;20431;-82
2023/03/26 06:13:10;;;;;;;59.45;34.35;;;8.70;99.90;;;;;;4997966;28;20408;-81
2023/03/26 06:15:36;;;;;;;64.70;38.25;;;8.70;99.90;;;;;;4996759;28;20042;-81
2023/03/26 06:18:02;;;;;;;49.60;31.50;;;8.60;99.90;;;;;;4991430;28;20411;-81
2023/03/26 06:20:31;;;;;;;62.40;36.70;;;8.60;99.90;;;;;;4997917;28;20034;-81
2023/03/26 06:22:56;;;;;;;55.80;33.92;;;8.50;99.90;;;;;;5000854;28;20019;-82
2023/03/26 06:25:22;;;;;;;51.08;31.65;;;8.50;99.90;;;;;;5014529;28;20022;-82
2023/03/26 06:27:48;;;;;;;53.53;32.78;;;8.40;99.90;;;;;;4997753;28;20106;-80
2023/03/26 06:30:14;;;;;;;53.63;30.30;;;8.30;99.90;;;;;;5004034;28;20030;-82
2023/03/26 06:32:40;;;;;;;54.88;28.25;;;8.20;99.90;;;;;;4994705;28;20042;-82
2023/03/26 06:35:06;;;;;;;47.38;27.98;;;8.20;99.90;;;;;;5020290;28;20013;-83
2023/03/26 06:37:32;;;;;;;39.03;25.50;;;8.20;99.90;;;;;;5021011;28;20049;-82
2023/03/26 06:39:58;;;;;;;41.08;25.67;;;8.20;99.90;;;;;;5010512;28;20031;-83
2023/03/26 06:42:24;;;;;;;47.17;27.77;;;8.20;99.90;;;;;;5006541;28;20114;-82
2023/03/26 06:44:50;;;;;;;41.20;23.55;;;8.20;99.90;;;;;;5003358;28;20026;-83
2023/03/26 06:47:16;;;;;;;48.15;27.38;;;8.30;99.90;;;;;;4998596;28;20053;-81
2023/03/26 06:49:42;;;;;;;39.00;24.50;;;8.20;99.90;;;;;;5005943;28;20416;-81
2023/03/26 06:52:07;;;;;;;44.55;25.55;;;8.30;99.90;;;;;;4989984;28;20034;-82
2023/03/26 06:54:33;;;;;;;37.30;21.48;;;8.30;99.90;;;;;;5010158;28;20100;-81
2023/03/26 06:56:59;;;;;;;43.78;23.92;;;8.30;99.90;;;;;;5000359;28;20018;-81
2023/03/26 06:59:25;;;;;;;44.85;24.92;;;8.20;99.90;;;;;;4986896;28;20068;-81
2023/03/26 07:01:51;;;;;;;42.55;25.98;;;8.30;99.90;;;;;;4994346;28;20023;-83
2023/03/26 07:04:19;;;;;;;43.55;23.80;;;8.30;99.90;;;;;;4995188;28;20030;-82
2023/03/26 07:06:48;;;;;;;42.22;26.38;;;8.30;99.90;;;;;;5001069;28;20026;-83
2023/03/26 07:09:15;;;;;;;43.80;27.58;;;8.30;99.90;;;;;;4997602;28;20025;-82
2023/03/26 07:11:41;;;;;;;52.65;27.83;;;8.40;99.90;;;;;;5001480;28;20400;-82
2023/03/26 07:14:07;;;;;;;39.47;25.23;;;8.40;99.90;;;;;;5015709;28;20117;-82
2023/03/26 07:16:32;;;;;;;42.83;25.95;;;8.40;99.90;;;;;;5006428;28;20463;-81
2023/03/26 07:18:59;;;;;;;41.85;26.52;;;8.40;99.90;;;;;;4999921;28;20022;-81
2023/03/26 07:21:25;;;;;;;46.15;27.73;;;8.40;99.90;;;;;;4990969;28;20015;-81
2023/03/26 07:23:52;;;;;;;47.22;29.00;;;8.40;99.90;;;;;;5005130;28;20033;-82
2023/03/26 07:26:37;;;;;;;39.53;25.08;;;8.30;99.90;;;;;;4995149;28;20026;-82
2023/03/26 07:29:33;;;;;;;37.38;24.73;;;8.30;99.90;;;;;;4997294;28;20086;-83
2023/03/26 07:32:13;;;;;;;43.45;27.08;;;8.30;99.90;;;;;;4985902;28;20034;-82
2023/03/26 07:34:59;;;;;;;38.80;25.38;;;8.30;99.90;;;;;;4994377;28;20084;-81
2023/03/26 07:37:39;;;;;;;35.25;23.80;;;8.30;99.90;;;;;;5004463;28;20022;-81
2023/03/26 07:40:27;;;;;;;38.30;24.48;;;8.30;99.90;;;;;;5024327;28;20057;-81
2023/03/26 07:43:06;;;;;;;28.33;20.58;;;8.30;99.90;;;;;;4997888;28;20033;-83
2023/03/26 07:45:39;;;;;;;30.85;21.10;;;8.20;99.90;;;;;;5006259;28;20361;-82
2023/03/26 07:48:24;;;;;;;28.02;21.38;;;8.10;99.90;;;;;;5001547;28;20109;-83
2023/03/26 07:50:50;;;;;;;29.27;21.70;;;8.20;99.90;;;;;;4994205;28;20496;-83
2023/03/26 07:53:16;;;;;;;33.80;22.60;;;8.20;99.90;;;;;;4994151;28;20066;-82
2023/03/26 07:56:07;;;;;;;30.27;23.10;;;8.20;99.90;;;;;;5004631;28;20033;-83
2023/03/26 07:59:14;;;;;;;29.75;20.27;;;8.20;99.90;;;;;;4997493;28;20480;-82
2023/03/26 08:02:20;;;;;;;29.00;22.40;;;8.20;99.90;;;;;;4990537;28;20023;-84
2023/03/26 08:05:01;;;;;;;27.40;19.27;;;8.20;99.90;;;;;;5000245;28;20081;-83
2023/03/26 08:07:50;;;;;;;26.58;20.67;;;8.20;99.90;;;;;;4983606;28;20510;-83
2023/03/26 08:10:44;;;;;;;23.88;19.30;;;8.30;99.90;;;;;;4995071;28;20018;-82
2023/03/26 08:13:22;;;;;;;23.67;18.42;;;8.30;99.90;;;;;;4994744;28;20034;-84
2023/03/26 08:15:59;;;;;;;17.73;15.73;;;8.20;99.90;;;;;;4995966;28;20053;-82
2023/03/26 08:18:57;;;;;;;22.20;15.55;;;8.20;99.90;;;;;;4999461;28;20028;-85
2023/03/26 08:21:33;;;;;;;16.95;14.27;;;8.20;99.90;;;;;;4992952;28;20029;-85
2023/03/26 08:24:11;;;;;;;26.17;14.43;;;8.30;99.90;;;;;;4995190;28;20034;-84
2023/03/26 08:27:12;;;;;;;14.18;12.52;;;8.40;99.90;;;;;;4995539;28;20033;-83
2023/03/26 08:29:48;;;;;;;17.63;13.55;;;8.30;99.90;;;;;;4993383;28;20027;-83
2023/03/26 08:32:17;;;;;;;17.80;14.23;;;8.20;99.90;;;;;;4994759;28;20042;-83
2023/03/26 08:34:43;;;;;;;16.95;14.35;;;8.10;99.90;;;;;;4993350;28;20509;-81
2023/03/26 08:37:10;;;;;;;17.98;14.98;;;8.10;99.90;;;;;;4995198;28;20038;-82
2023/03/26 08:39:38;;;;;;;16.55;14.32;;;8.10;99.90;;;;;;4993750;28;20054;-83
2023/03/26 08:42:28;;;;;;;16.42;14.73;;;8.20;99.90;;;;;;4994002;28;20442;-81
2023/03/26 08:45:27;;;;;;;19.60;15.25;;;8.20;99.90;;;;;;4995833;28;20022;-80
2023/03/26 08:48:00;;;;;;;19.25;14.68;;;8.10;99.90;;;;;;4995940;28;20109;-80
2023/03/26 08:50:35;;;;;;;14.75;13.23;;;8.00;99.90;;;;;;4987480;28;20030;-81
2023/03/26 08:53:19;;;;;;;15.40;13.05;;;8.00;99.90;;;;;;5000779;28;20034;-82
2023/03/26 08:55:56;;;;;;;13.38;11.98;;;8.00;99.90;;;;;;4986108;28;20022;-81
2023/03/26 08:58:46;;;;;;;16.27;14.15;;;7.90;99.90;;;;;;4996139;28;20107;-82
2023/03/26 09:01:44;;;;;;;14.00;12.07;;;7.90;99.90;;;;;;4994511;28;20121;-82
2023/03/26 09:04:34;;;;;;;15.82;12.90;;;7.90;99.90;;;;;;5001136;28;20121;-86
2023/03/26 09:07:06;;;;;;;14.55;12.38;;;8.00;99.90;;;;;;5001380;28;20030;-84
2023/03/26 09:10:04;;;;;;;13.98;11.50;;;7.90;99.90;;;;;;5000530;28;20158;-82
2023/03/26 09:12:35;;;;;;;15.90;12.98;;;7.90;99.90;;;;;;5004694;28;20030;-83
2023/03/26 09:15:46;;;;;;;16.58;14.75;;;7.90;99.90;;;;;;5005712;28;20038;-83
2023/03/26 09:18:52;;;;;;;17.52;14.13;;;7.90;99.90;;;;;;5010437;28;20084;-84
2023/03/26 09:21:46;;;;;;;17.70;12.75;;;7.90;99.90;;;;;;4984586;28;20034;-82
2023/03/26 09:24:39;;;;;;;17.63;14.68;;;7.90;99.90;;;;;;4994231;28;20488;-84
2023/03/26 09:27:25;;;;;;;15.30;13.70;;;8.00;99.90;;;;;;4997906;28;20539;-81
2023/03/26 09:30:18;;;;;;;19.92;17.15;;;8.00;99.90;;;;;;4998319;28;20057;-82
2023/03/26 09:33:22;;;;;;;18.77;16.55;;;8.10;99.90;;;;;;4999954;28;20563;-80
2023/03/26 09:35:52;;;;;;;18.73;16.45;;;8.20;99.90;;;;;;4979342;28;20019;-82
2023/03/26 09:39:00;;;;;;;20.30;16.75;;;8.20;99.90;;;;;;4993188;28;20034;-81
2023/03/26 09:41:31;;;;;;;19.17;16.35;;;8.20;99.90;;;;;;5001967;28;20022;-82
2023/03/26 09:44:12;;;;;;;19.23;16.17;;;8.30;99.90;;;;;;5007178;28;20023;-82
2023/03/26 09:46:56;;;;;;;17.42;15.43;;;8.40;99.90;;;;;;4997163;28;20041;-80
2023/03/26 09:49:37;;;;;;;21.60;16.60;;;8.50;99.90;;;;;;4999600;28;20045;-79
2023/03/26 09:52:20;;;;;;;20.60;15.70;;;8.60;99.90;;;;;;4997077;28;20036;-80
2023/03/26 09:55:19;;;;;;;16.70;14.15;;;8.70;99.90;;;;;;4996613;28;20092;-81
2023/03/26 09:58:06;;;;;;;21.48;15.38;;;8.70;99.90;;;;;;4998220;28;20487;-81
2023/03/26 10:00:35;;;;;;;16.77;15.00;;;8.60;99.90;;;;;;4995568;28;20018;-81
2023/03/26 10:03:16;;;;;;;17.50;14.45;;;8.50;99.90;;;;;;4990969;28;20029;-81
2023/03/26 10:06:01;;;;;;;17.20;14.23;;;8.60;99.90;;;;;;5021808;28;20026;-82
2023/03/26 10:08:49;;;;;;;16.00;13.15;;;8.50;99.90;;;;;;5010024;28;20082;-81
2023/03/26 10:11:25;;;;;;;15.20;12.82;;;8.50;99.90;;;;;;5011973;28;20046;-82
2023/03/26 10:14:06;;;;;;;16.38;14.40;;;8.50;99.90;;;;;;5007307;28;20026;-82
2023/03/26 10:16:58;;;;;;;15.55;13.25;;;8.50;99.90;;;;;;5006614;28;20051;-82
2023/03/26 10:19:30;;;;;;;15.60;13.93;;;8.50;99.90;;;;;;4993242;28;20032;-82
2023/03/26 10:22:09;;;;;;;17.25;14.90;;;8.40;99.90;;;;;;5016416;28;20031;-81
2023/03/26 10:24:47;;;;;;;15.23;13.60;;;8.40;99.90;;;;;;4998579;28;20022;-83
2023/03/26 10:27:37;;;;;;;14.85;13.32;;;8.50;99.90;;;;;;4998491;28;20015;-82
2023/03/26 10:30:21;;;;;;;18.40;14.93;;;8.60;99.90;;;;;;4996959;28;20569;-82
2023/03/26 10:33:02;;;;;;;27.25;21.30;;;8.60;99.90;;;;;;4996067;28;20051;-83
2023/03/26 10:35:54;;;;;;;17.88;13.85;;;8.50;99.90;;;;;;4999216;28;20035;-81
2023/03/26 10:38:32;;;;;;;16.95;14.40;;;8.50;99.90;;;;;;5002724;28;20093;-81
2023/03/26 10:41:28;;;;;;;18.63;14.48;;;8.50;99.90;;;;;;4995214;28;20098;-82
2023/03/26 10:44:31;;;;;;;20.00;14.68;;;8.50;99.90;;;;;;4998229;28;20030;-80
2023/03/26 10:47:09;;;;;;;19.42;14.75;;;8.50;99.90;;;;;;4996955;28;20033;-81
2023/03/26 10:49:47;;;;;;;18.45;15.93;;;8.40;99.90;;;;;;4998181;28;20022;-81
2023/03/26 10:52:19;;;;;;;24.50;17.70;;;8.40;99.90;;;;;;4997056;28;20133;-79
2023/03/26 10:54:58;;;;;;;22.02;17.40;;;8.40;99.90;;;;;;4998585;28;20029;-82
2023/03/26 10:57:38;;;;;;;30.60;18.52;;;8.50;99.90;;;;;;5009127;28;20022;-82
2023/03/26 11:00:25;;;;;;;23.63;19.02;;;8.60;99.90;;;;;;5003284;28;20030;-83
2023/03/26 11:03:07;;;;;;;23.67;19.70;;;8.50;99.90;;;;;;4997793;28;20101;-80
2023/03/26 11:06:22;;;;;;;21.98;18.48;;;8.50;99.90;;;;;;4997724;28;20022;-83
2023/03/26 11:09:37;;;;;;;25.05;18.73;;;8.60;99.90;;;;;;4991988;28;20030;-82
2023/03/26 11:12:23;;;;;;;28.85;20.05;;;8.30;99.90;;;;;;4936779;29;20045;-82
2023/03/26 11:15:15;;;;;;;29.35;21.65;;;8.20;99.90;;;;;;4941041;29;20048;-83
2023/03/26 11:18:10;;;;;;;26.50;20.55;;;8.20;99.90;;;;;;5001420;28;20069;-82
2023/03/26 11:20:52;;;;;;;30.48;23.30;;;8.20;99.90;;;;;;5018664;28;20404;-83
2023/03/26 11:23:36;;;;;;;32.78;22.20;;;8.20;99.90;;;;;;5000083;28;20053;-82
2023/03/26 11:26:39;;;;;;;29.75;22.48;;;8.20;99.90;;;;;;5013330;28;20029;-84
2023/03/26 11:29:36;;;;;;;31.40;23.75;;;8.20;99.90;;;;;;4987866;28;20058;-83
2023/03/26 11:32:16;;;;;;;33.97;22.63;;;8.20;99.90;;;;;;4995722;28;20121;-82
2023/03/26 11:34:52;;;;;;;36.85;25.10;;;8.20;99.90;;;;;;4990446;28;20034;-81
2023/03/26 11:37:36;;;;;;;33.90;24.55;;;8.20;99.90;;;;;;5004105;28;20037;-89
2023/03/26 11:40:12;;;;;;;39.60;25.90;;;8.30;99.90;;;;;;4995858;28;20022;-84
2023/03/26 11:42:40;;;;;;;36.88;27.60;;;8.40;99.90;;;;;;4998456;28;20129;-84
2023/03/26 11:45:13;;;;;;;39.65;27.10;;;8.40;99.90;;;;;;5011480;28;20025;-83
2023/03/26 11:47:47;;;;;;;39.22;25.75;;;8.40;99.90;;;;;;5014336;28;20090;-83
2023/03/26 11:50:31;;;;;;;39.08;28.63;;;8.40;99.90;;;;;;5013837;28;20019;-85
2023/03/26 11:53:05;;;;;;;41.40;29.42;;;8.40;99.90;;;;;;5011996;28;20135;-83
2023/03/26 11:55:31;;;;;;;38.10;28.65;;;8.40;99.90;;;;;;5011535;28;20021;-84
2023/03/26 11:57:59;;;;;;;39.60;29.45;;;8.40;99.90;;;;;;5005764;28;20042;-84
2023/03/26 12:00:29;;;;;;;42.33;30.17;;;8.40;99.90;;;;;;5003031;28;20029;-83
2023/03/26 12:02:57;;;;;;;42.13;26.17;;;8.40;99.90;;;;;;4994902;28;20038;-84
2023/03/26 12:05:35;;;;;;;43.17;29.25;;;8.40;99.90;;;;;;4998971;28;20023;-84
2023/03/26 12:08:20;;;;;;;42.60;28.90;;;8.40;99.90;;;;;;4987129;28;20073;-84
2023/03/26 12:10:57;;;;;;;43.45;30.63;;;8.40;99.90;;;;;;4995641;28;20026;-81
2023/03/26 12:13:27;;;;;;;36.15;24.45;;;8.30;99.90;;;;;;4987485;28;20035;-83
2023/03/26 12:16:09;;;;;;;39.15;28.02;;;8.40;99.90;;;;;;4990301;28;20637;-83
2023/03/26 12:18:42;;;;;;;33.92;24.27;;;8.30;99.90;;;;;;4997743;28;20325;-83
2023/03/26 12:21:08;;;;;;;40.85;28.40;;;8.30;99.90;;;;;;5001657;28;20038;-83
2023/03/26 12:23:43;;;;;;;38.00;27.95;;;8.30;99.90;;;;;;4994620;28;20090;-83
2023/03/26 12:26:20;;;;;;;41.25;28.17;;;8.30;99.90;;;;;;4992887;28;20038;-84
2023/03/26 12:28:50;;;;;;;43.42;30.63;;;8.30;99.90;;;;;;4991444;28;20027;-81
2023/03/26 12:31:17;;;;;;;45.05;29.30;;;8.30;99.90;;;;;;5007854;28;20086;-80
2023/03/26 12:33:51;;;;;;;43.85;28.40;;;8.30;99.90;;;;;;4999243;28;20034;-82
2023/03/26 12:36:26;;;;;;;35.88;26.33;;;8.30;99.90;;;;;;4995977;28;20030;-82
2023/03/26 12:38:53;;;;;;;43.75;29.55;;;8.30;99.90;;;;;;4997075;28;20029;-82
2023/03/26 12:41:31;;;;;;;39.58;27.08;;;8.20;99.90;;;;;;4995035;28;20023;-82
2023/03/26 12:44:32;;;;;;;44.25;26.45;;;8.30;99.90;;;;;;4994880;28;20475;-81
2023/03/26 12:47:18;;;;;;;39.20;27.60;;;8.20;99.90;;;;;;5009994;28;20429;-82
2023/03/26 12:49:45;;;;;;;38.55;28.63;;;8.20;99.90;;;;;;4996004;28;20054;-84
2023/03/26 12:52:38;;;;;;;39.55;28.88;;;8.20;99.90;;;;;;4995031;28;20042;-81
2023/03/26 12:55:16;;;;;;;38.78;26.27;;;8.30;99.90;;;;;;4972136;28;20050;-81
2023/03/26 12:58:04;;;;;;;40.55;26.75;;;8.30;99.90;;;;;;4993619;28;20022;-83
2023/03/26 13:00:33;;;;;;;39.58;28.38;;;8.30;99.90;;;;;;4994816;28;20029;-80
2023/03/26 13:03:14;;;;;;;35.28;25.70;;;8.30;99.90;;;;;;4997736;28;20026;-81
2023/03/26 13:05:56;;;;;;;37.42;25.50;;;8.30;99.90;;;;;;4994569;28;20022;-81
2023/03/26 13:08:46;;;;;;;36.42;25.48;;;8.30;99.90;;;;;;4995333;28;20472;-82
2023/03/26 13:11:38;;;;;;;36.70;23.48;;;8.30;99.90;;;;;;4988605;28;20028;-79
2023/03/26 13:14:45;;;;;;;34.28;23.15;;;8.20;99.90;;;;;;4994391;28;20061;-83
2023/03/26 13:17:17;;;;;;;;;;;8.20;99.90;;;;;;4992675;28;20046;-81